Pride — ZDFD7 — position and weather

sailwx.info

Track history (hours):
 
Tides and Currents Weather Stations Pressure Air Temp Water Temp Dewpoint Dewpoint Depression Visibility Wind Speed Wind Dir Waves Ship Positions

Pride

Last reported at 2015-Jul-01 14:33 UTC. Time now 2015-Jul-02 00:57 UTC.
Position N 59°22' E 006°00'.

Length 88 m; draft 3.5 m.

Type: Ship. MMSI: 236166000.

Date/timePositionNaut miles runAvg speedWind from/ knotsBaromVisibWave heightAir tempDewpointWater temp
2015-Jul-01 14:33N 59°22' E 006°00'1010.5
2015-Jul-01 13:33N 59°15' E 005°43'1111.2
2015-Jul-01 12:33N 59°07' E 005°29'9 9.4
2015-Jul-01 11:33N 58°58' E 005°21'1010.4
2015-Jul-01 10:33N 58°48' E 005°22'1511.2
2015-Jul-01 09:11N 58°34' E 005°33'710.8
2015-Jul-01 08:33N 58°28' E 005°41'1111.1
2015-Jul-01 07:33N 58°21' E 005°56'79 9.8
2015-Jun-30 23:33N 58°06' E 008°22'1111.6
2015-Jun-30 22:33N 58°14' E 008°38'1211.5
2015-Jun-30 21:33N 58°23' E 008°53'1211.5
2015-Jun-30 20:33N 58°31' E 009°08'1311.7
2015-Jun-30 19:27N 58°41' E 009°24'1011.3
2015-Jun-30 18:33N 58°48' E 009°38'1010.4
2015-Jun-30 17:33N 58°58' E 009°47'  
2015-Jun-27 20:22N 59°05' E 009°38'7 8.7
2015-Jun-27 19:33N 58°60' E 009°47'12 9.5
2015-Jun-27 18:16N 58°49' E 009°58'5310.2
2015-Jun-27 13:05N 58°06' E 010°56'610.3
2015-Jun-27 12:32N 58°02' E 011°03'1010.0
2015-Jun-27 11:33N 57°54' E 011°13'1010.2
2015-Jun-27 10:33N 57°45' E 011°24'1110.6
2015-Jun-27 09:33N 57°38' E 011°39'9 9.1
2015-Jun-27 08:33N 57°42' E 011°55'6 5.9
2015-Jun-27 07:33N 57°47' E 012°00'7 7.4
2015-Jun-27 06:33N 57°54' E 012°03'9 8.9
2015-Jun-27 05:33N 58°02' E 012°09'6 5.9
2015-Jun-27 04:33N 58°08' E 012°07'5 5.5
2015-Jun-27 03:33N 58°13' E 012°10'4 3.5
2015-Jun-27 02:33N 58°16' E 012°15'0 0.4
2015-Jun-27 01:33N 58°16' E 012°16'5 4.9
2015-Jun-27 00:30N 58°20' E 012°21'3 3.6
2015-Jun-26 23:33N 58°24' E 012°19'9 8.6
2015-Jun-26 22:33N 58°30' E 012°31'2 0.1
2015-Jun-25 22:33N 58°31' E 012°33'10 9.9
2015-Jun-25 21:33N 58°24' E 012°20'4 3.8
2015-Jun-25 20:33N 58°20' E 012°21'4 4.5
2015-Jun-25 19:34N 58°17' E 012°17'1 1.0
2015-Jun-25 18:33N 58°16' E 012°15'3 3.3
2015-Jun-25 17:34N 58°14' E 012°11'6 5.7
2015-Jun-25 16:33N 58°08' E 012°07'7 6.6
2015-Jun-25 15:33N 58°02' E 012°09'7 7.4
2015-Jun-25 14:33N 57°55' E 012°03'7 7.3
2015-Jun-25 13:33N 57°48' E 012°01'5 4.9
2015-Jun-25 12:33N 57°43' E 011°58'8 7.7
2015-Jun-25 11:33N 57°39' E 011°45'10 9.8
2015-Jun-25 10:33N 57°40' E 011°27'1111.5
2015-Jun-25 09:33N 57°43' E 011°07'168 8.3
2015-Jun-24 13:23N 55°35' E 007°49'6 7.5
2015-Jun-24 12:33N 55°31' E 007°57'8 8.0
2015-Jun-24 11:33N 55°27' E 008°09'8 7.6
2015-Jun-24 10:33N 55°29' E 008°22'3 2.6
2015-Jun-24 09:18N 55°27' E 008°27'0 0.0
2015-Jun-24 08:32N 55°27' E 008°27'0 0.0
2015-Jun-24 06:31N 55°27' E 008°27'0 0.0
2015-Jun-24 05:23N 55°27' E 008°27'0 0.0
2015-Jun-24 03:20N 55°27' E 008°27'0 0.0
2015-Jun-24 02:22N 55°27' E 008°27'0 0.1
2015-Jun-24 01:20N 55°27' E 008°27'0 0.0
2015-Jun-24 00:24N 55°27' E 008°27'0 0.0
2015-Jun-23 23:32N 55°27' E 008°27'0 0.0
2015-Jun-23 22:30N 55°27' E 008°27'0 0.0
2015-Jun-23 21:27N 55°27' E 008°27'5 5.1
2015-Jun-23 20:33N 55°27' E 008°19'8 7.7
2015-Jun-23 19:30N 55°28' E 008°05'4 9.6
2015-Jun-23 19:06N 55°30' E 007°59'  
Track history (hours):
 
Tides and Currents Weather Stations Pressure Air Temp Water Temp Dewpoint Dewpoint Depression Visibility Wind Speed Wind Dir Waves Ship Positions

Pride

Last reported at 2015-Jul-01 14:33 UTC. Time now 2015-Jul-02 00:57 UTC.
Position N 59°22' E 006°00'.

Length 88 m; draft 3.5 m.

Type: Ship. MMSI: 236166000.

Date/timePositionNaut miles runAvg speedWind from/ knotsBaromVisibWave heightAir tempDewpointWater temp
2015-Jul-01 14:33N 59°22' E 006°00'1010.5
2015-Jul-01 13:33N 59°15' E 005°43'1111.2
2015-Jul-01 12:33N 59°07' E 005°29'9 9.4
2015-Jul-01 11:33N 58°58' E 005°21'1010.4
2015-Jul-01 10:33N 58°48' E 005°22'1511.2
2015-Jul-01 09:11N 58°34' E 005°33'710.8
2015-Jul-01 08:33N 58°28' E 005°41'1111.1
2015-Jul-01 07:33N 58°21' E 005°56'79 9.8
2015-Jun-30 23:33N 58°06' E 008°22'1111.6
2015-Jun-30 22:33N 58°14' E 008°38'1211.5
2015-Jun-30 21:33N 58°23' E 008°53'1211.5
2015-Jun-30 20:33N 58°31' E 009°08'1311.7
2015-Jun-30 19:27N 58°41' E 009°24'1011.3
2015-Jun-30 18:33N 58°48' E 009°38'1010.4
2015-Jun-30 17:33N 58°58' E 009°47'  
2015-Jun-27 20:22N 59°05' E 009°38'7 8.7
2015-Jun-27 19:33N 58°60' E 009°47'12 9.5
2015-Jun-27 18:16N 58°49' E 009°58'5310.2
2015-Jun-27 13:05N 58°06' E 010°56'610.3
2015-Jun-27 12:32N 58°02' E 011°03'1010.0
2015-Jun-27 11:33N 57°54' E 011°13'1010.2
2015-Jun-27 10:33N 57°45' E 011°24'1110.6
2015-Jun-27 09:33N 57°38' E 011°39'9 9.1
2015-Jun-27 08:33N 57°42' E 011°55'6 5.9
2015-Jun-27 07:33N 57°47' E 012°00'7 7.4
2015-Jun-27 06:33N 57°54' E 012°03'9 8.9
2015-Jun-27 05:33N 58°02' E 012°09'6 5.9
2015-Jun-27 04:33N 58°08' E 012°07'5 5.5
2015-Jun-27 03:33N 58°13' E 012°10'4 3.5
2015-Jun-27 02:33N 58°16' E 012°15'0 0.4
2015-Jun-27 01:33N 58°16' E 012°16'5 4.9
2015-Jun-27 00:30N 58°20' E 012°21'3 3.6
2015-Jun-26 23:33N 58°24' E 012°19'9 8.6
2015-Jun-26 22:33N 58°30' E 012°31'2 0.1
2015-Jun-25 22:33N 58°31' E 012°33'10 9.9
2015-Jun-25 21:33N 58°24' E 012°20'4 3.8
2015-Jun-25 20:33N 58°20' E 012°21'4 4.5
2015-Jun-25 19:34N 58°17' E 012°17'1 1.0
2015-Jun-25 18:33N 58°16' E 012°15'3 3.3
2015-Jun-25 17:34N 58°14' E 012°11'6 5.7
2015-Jun-25 16:33N 58°08' E 012°07'7 6.6
2015-Jun-25 15:33N 58°02' E 012°09'7 7.4
2015-Jun-25 14:33N 57°55' E 012°03'7 7.3
2015-Jun-25 13:33N 57°48' E 012°01'5 4.9
2015-Jun-25 12:33N 57°43' E 011°58'8 7.7
2015-Jun-25 11:33N 57°39' E 011°45'10 9.8
2015-Jun-25 10:33N 57°40' E 011°27'1111.5
2015-Jun-25 09:33N 57°43' E 011°07'168 8.3
2015-Jun-24 13:23N 55°35' E 007°49'6 7.5
2015-Jun-24 12:33N 55°31' E 007°57'8 8.0
2015-Jun-24 11:33N 55°27' E 008°09'8 7.6
2015-Jun-24 10:33N 55°29' E 008°22'3 2.6
2015-Jun-24 09:18N 55°27' E 008°27'0 0.0
2015-Jun-24 08:32N 55°27' E 008°27'0 0.0
2015-Jun-24 06:31N 55°27' E 008°27'0 0.0
2015-Jun-24 05:23N 55°27' E 008°27'0 0.0
2015-Jun-24 03:20N 55°27' E 008°27'0 0.0
2015-Jun-24 02:22N 55°27' E 008°27'0 0.1
2015-Jun-24 01:20N 55°27' E 008°27'0 0.0
2015-Jun-24 00:24N 55°27' E 008°27'0 0.0
2015-Jun-23 23:32N 55°27' E 008°27'0 0.0
2015-Jun-23 22:30N 55°27' E 008°27'0 0.0
2015-Jun-23 21:27N 55°27' E 008°27'5 5.1
2015-Jun-23 20:33N 55°27' E 008°19'8 7.7
2015-Jun-23 19:30N 55°28' E 008°05'4 9.6
2015-Jun-23 19:06N 55°30' E 007°59'  

Dump ship's entire track history